createdAt,value
2016-03-01T00:00:27.231Z,5.86
2016-03-01T00:01:27.187Z,5.82
2016-03-01T00:02:27.205Z,5.86
2016-03-01T00:03:27.224Z,5.84
2016-03-01T00:04:27.226Z,5.86
2016-03-01T00:05:27.245Z,5.87
2016-03-01T00:06:27.263Z,5.87
2016-03-01T00:07:27.281Z,5.82
2016-03-01T00:08:27.284Z,5.82
2016-03-01T00:09:27.302Z,5.86
2016-03-01T00:10:27.320Z,5.89
2016-03-01T00:11:27.323Z,5.9
2016-03-01T00:12:27.373Z,5.9
2016-03-01T00:13:27.391Z,5.87
2016-03-01T00:14:27.362Z,5.86
2016-03-01T00:15:27.428Z,5.9
2016-03-01T00:16:27.398Z,5.89
2016-03-01T00:17:27.449Z,5.9
2016-03-01T00:18:27.420Z,5.83
2016-03-01T00:19:27.439Z,5.89
2016-03-01T00:20:27.456Z,5.86
2016-03-01T00:21:27.476Z,5.84
2016-03-01T00:22:27.540Z,5.93
2016-03-01T00:23:27.512Z,5.9
2016-03-01T00:24:27.515Z,5.83
2016-03-01T00:25:27.533Z,5.83
2016-03-01T00:26:27.551Z,5.8
2016-03-01T00:27:27.553Z,5.91
2016-03-01T00:28:27.588Z,5.82
2016-03-01T00:29:27.590Z,5.91
2016-03-01T00:30:27.596Z,5.91
2016-03-01T00:31:27.474Z,5.86
2016-03-01T00:32:27.476Z,5.75
2016-03-01T00:33:27.635Z,5.9
2016-03-01T00:34:27.669Z,5.9
2016-03-01T00:35:27.672Z,5.87
2016-03-01T00:36:27.691Z,5.89
2016-03-01T00:37:27.724Z,5.9
2016-03-01T00:38:27.711Z,5.86
2016-03-01T00:39:27.745Z,5.86
2016-03-01T00:40:27.748Z,5.87
2016-03-01T00:41:27.766Z,5.82
2016-03-01T00:42:27.769Z,5.86
2016-03-01T00:43:27.787Z,5.82
2016-03-01T00:44:27.806Z,5.86
2016-03-01T00:45:27.824Z,5.82
2016-03-01T00:46:27.686Z,5.83
2016-03-01T00:47:27.860Z,5.82
2016-03-01T00:48:27.863Z,5.86
2016-03-01T00:49:27.881Z,5.84
2016-03-01T00:50:27.884Z,5.83
2016-03-01T00:51:27.903Z,5.8
2016-03-01T00:52:27.955Z,5.76
2016-03-01T00:53:27.943Z,5.8
2016-03-01T00:54:27.946Z,5.83
2016-03-01T00:55:27.979Z,5.79
2016-03-01T00:56:27.982Z,5.75
2016-03-01T00:57:27.985Z,5.75
2016-03-01T00:58:28.019Z,5.8
2016-03-01T00:59:28.022Z,5.82
2016-03-01T01:00:28.040Z,5.79
2016-03-01T01:01:28.042Z,5.82
2016-03-01T01:02:28.077Z,5.79
2016-03-01T01:03:28.080Z,5.79
2016-03-01T01:04:28.113Z,5.8
2016-03-01T01:05:28.101Z,5.91
2016-03-01T01:06:28.118Z,5.73
2016-03-01T01:07:28.153Z,5.84
2016-03-01T01:08:28.156Z,5.79
2016-03-01T01:09:28.174Z,5.86
2016-03-01T01:10:28.208Z,5.86
2016-03-01T01:11:28.195Z,5.84
2016-03-01T01:12:28.228Z,5.82
2016-03-01T01:13:28.247Z,5.82
2016-03-01T01:14:28.249Z,5.82
2016-03-01T01:15:28.252Z,5.82
2016-03-01T01:16:28.270Z,5.87
2016-03-01T01:17:28.289Z,5.89
2016-03-01T01:18:28.307Z,5.82
2016-03-01T01:19:28.310Z,5.82
2016-03-01T01:20:28.327Z,5.82
2016-03-01T01:21:28.363Z,5.8
2016-03-01T01:22:28.366Z,5.82
2016-03-01T01:23:28.383Z,5.87
2016-03-01T01:24:28.402Z,5.73
2016-03-01T01:25:28.404Z,5.89
2016-03-01T01:26:28.454Z,5.86
2016-03-01T01:27:28.457Z,5.84
2016-03-01T01:28:28.459Z,5.89
2016-03-01T01:29:28.305Z,5.89
2016-03-01T01:30:28.495Z,5.84
2016-03-01T01:31:28.498Z,5.82
2016-03-01T01:32:28.517Z,5.87
2016-03-01T01:33:28.520Z,5.86
2016-03-01T01:34:28.569Z,5.8
2016-03-01T01:35:28.587Z,5.82
2016-03-01T01:36:28.574Z,5.9
2016-03-01T01:37:28.592Z,5.79
2016-03-01T01:38:28.596Z,5.87
2016-03-01T01:39:28.614Z,5.82
2016-03-01T01:40:28.632Z,5.87
2016-03-01T01:41:28.667Z,5.72
2016-03-01T01:42:28.669Z,5.83
2016-03-01T01:43:28.672Z,5.83
2016-03-01T01:44:28.689Z,5.83
2016-03-01T01:45:28.692Z,5.8
2016-03-01T01:46:28.773Z,5.82
2016-03-01T01:47:28.729Z,5.8
2016-03-01T01:48:28.731Z,5.83
2016-03-01T01:49:28.828Z,5.86
2016-03-01T01:50:28.768Z,5.82
2016-03-01T01:51:28.786Z,5.84
2016-03-01T01:52:28.805Z,5.89
2016-03-01T01:53:28.824Z,5.83
2016-03-01T01:54:28.826Z,5.79
2016-03-01T01:55:28.844Z,5.79
2016-03-01T01:56:28.846Z,5.79
2016-03-01T01:57:28.881Z,5.82
2016-03-01T01:58:28.883Z,5.79
2016-03-01T01:59:28.902Z,5.82
2016-03-01T02:00:28.904Z,5.83
2016-03-01T02:01:28.923Z,5.76
2016-03-01T02:02:28.957Z,5.79
2016-03-01T02:03:28.976Z,5.8
2016-03-01T02:04:28.993Z,5.82
2016-03-01T02:05:28.981Z,5.8
2016-03-01T02:06:29.015Z,5.83
2016-03-01T02:07:29.018Z,5.76
2016-03-01T02:08:29.035Z,5.73
2016-03-01T02:09:29.054Z,5.76
2016-03-01T02:10:29.056Z,5.86
2016-03-01T02:11:29.075Z,5.8
2016-03-01T02:12:29.093Z,5.76
2016-03-01T02:13:29.112Z,5.84
2016-03-01T02:14:29.161Z,5.84
2016-03-01T02:15:29.117Z,5.79
2016-03-01T02:16:29.181Z,5.82
2016-03-01T02:17:29.153Z,5.76
2016-03-01T02:18:29.172Z,5.84
2016-03-01T02:19:29.189Z,5.8
2016-03-01T02:20:30.927Z,5.84
2016-03-01T02:21:29.226Z,5.76
2016-03-01T02:22:29.255Z,5.8
2016-03-01T02:23:29.958Z,5.76
2016-03-01T02:24:29.742Z,5.75
2016-03-01T02:25:29.307Z,5.76
2016-03-01T02:26:29.280Z,5.8
2016-03-01T02:27:29.313Z,5.82
2016-03-01T02:28:29.332Z,5.79
2016-03-01T02:29:29.319Z,5.79
2016-03-01T02:30:29.369Z,5.8
2016-03-01T02:31:29.355Z,5.8
2016-03-01T02:32:29.374Z,5.79
2016-03-01T02:33:29.407Z,5.8
2016-03-01T02:34:29.426Z,5.75
2016-03-01T02:35:29.413Z,5.82
2016-03-01T02:36:29.431Z,5.79
2016-03-01T02:37:29.449Z,5.8
2016-03-01T02:38:29.467Z,5.8
2016-03-01T02:39:29.471Z,5.79
2016-03-01T02:40:29.489Z,5.79
2016-03-01T02:41:29.523Z,5.79
2016-03-01T02:42:29.510Z,5.82
2016-03-01T02:43:29.528Z,5.82
2016-03-01T02:44:29.562Z,5.8
2016-03-01T02:45:29.548Z,5.79
2016-03-01T02:46:29.583Z,5.79
2016-03-01T02:47:29.586Z,5.79
2016-03-01T02:48:29.604Z,5.71
2016-03-01T02:49:29.622Z,5.79
2016-03-01T02:50:29.656Z,5.76
2016-03-01T02:51:29.659Z,5.76
2016-03-01T02:52:29.677Z,5.83
2016-03-01T02:53:29.680Z,5.75
2016-03-01T02:54:29.698Z,5.79
2016-03-01T02:55:29.716Z,5.83
2016-03-01T02:56:29.719Z,5.75
2016-03-01T02:57:29.738Z,5.75
2016-03-01T02:58:29.756Z,5.72
2016-03-01T02:59:29.758Z,5.76
2016-03-01T03:00:29.777Z,5.75
2016-03-01T03:01:29.795Z,5.82
2016-03-01T03:02:29.813Z,5.8
2016-03-01T03:03:29.847Z,5.82
2016-03-01T03:04:29.866Z,5.82
2016-03-01T03:05:29.852Z,5.75
2016-03-01T03:06:29.855Z,5.84
2016-03-01T03:07:29.874Z,5.79
2016-03-01T03:08:29.908Z,5.75
2016-03-01T03:09:29.910Z,5.75
2016-03-01T03:10:29.913Z,5.79
2016-03-01T03:11:29.947Z,5.8
2016-03-01T03:12:29.981Z,5.84
2016-03-01T03:13:29.984Z,5.79
2016-03-01T03:14:29.986Z,5.75
2016-03-01T03:15:30.004Z,5.76
2016-03-01T03:16:30.039Z,5.8
2016-03-01T03:17:30.041Z,5.79
2016-03-01T03:18:30.044Z,5.73
2016-03-01T03:19:30.062Z,5.8
2016-03-01T03:20:30.080Z,5.76
2016-03-01T03:21:30.083Z,5.84
2016-03-01T03:22:30.102Z,5.79
2016-03-01T03:23:30.120Z,5.82
2016-03-01T03:24:30.122Z,5.71
2016-03-01T03:25:30.142Z,5.75
2016-03-01T03:26:30.159Z,5.71
2016-03-01T03:27:30.178Z,5.73
2016-03-01T03:28:30.180Z,5.71
2016-03-01T03:29:30.199Z,5.75
2016-03-01T03:30:30.216Z,5.71
2016-03-01T03:31:30.219Z,5.68
2016-03-01T03:32:30.300Z,5.68
2016-03-01T03:33:30.288Z,5.71
2016-03-01T03:34:30.290Z,5.69
2016-03-01T03:35:30.277Z,5.69
2016-03-01T03:36:30.311Z,5.75
2016-03-01T03:37:30.345Z,5.66
2016-03-01T03:38:30.333Z,5.75
2016-03-01T03:39:30.351Z,5.66
2016-03-01T03:40:30.354Z,5.57
2016-03-01T03:41:30.371Z,5.62
2016-03-01T03:42:30.390Z,5.73
2016-03-01T03:43:30.409Z,5.72
2016-03-01T03:44:30.427Z,5.66
2016-03-01T03:45:30.445Z,5.65
2016-03-01T03:46:30.448Z,5.65
2016-03-01T03:47:30.465Z,5.71
2016-03-01T03:48:30.515Z,5.65
2016-03-01T03:49:30.470Z,5.64
2016-03-01T03:50:30.506Z,5.59
2016-03-01T03:51:30.711Z,5.56
2016-03-01T03:52:30.542Z,5.56
2016-03-01T03:53:30.544Z,5.57
2016-03-01T03:54:30.563Z,5.5
2016-03-01T03:55:30.596Z,5.61
2016-03-01T03:56:30.584Z,5.59
2016-03-01T03:57:30.603Z,5.51
2016-03-01T03:58:30.636Z,5.61
2016-03-01T03:59:30.622Z,5.59
2016-03-01T04:00:30.641Z,5.5
2016-03-01T04:01:30.644Z,5.5
2016-03-01T04:02:30.678Z,5.5
2016-03-01T04:03:30.697Z,5.5
2016-03-01T04:04:30.715Z,5.43
2016-03-01T04:05:30.624Z,5.46
2016-03-01T04:06:30.735Z,5.5
2016-03-01T04:07:30.754Z,5.43
2016-03-01T04:08:30.803Z,5.48
2016-03-01T04:09:30.775Z,5.51
2016-03-01T04:10:30.788Z,5.47
2016-03-01T04:11:30.807Z,5.46
2016-03-01T04:12:30.825Z,5.5
2016-03-01T04:13:30.827Z,5.46
2016-03-01T04:14:30.846Z,5.48
2016-03-01T04:15:30.880Z,5.46
2016-03-01T04:16:30.867Z,5.39
2016-03-01T04:17:30.901Z,5.39
2016-03-01T04:18:30.935Z,5.43
2016-03-01T04:19:30.937Z,5.43
2016-03-01T04:20:30.941Z,5.39
2016-03-01T04:21:30.943Z,5.43
2016-03-01T04:22:30.962Z,5.41
2016-03-01T04:23:30.979Z,5.39
2016-03-01T04:24:30.998Z,5.41
2016-03-01T04:25:31.001Z,5.38
2016-03-01T04:26:31.035Z,5.35
2016-03-01T04:27:31.037Z,5.3
2016-03-01T04:28:31.103Z,5.3
2016-03-01T04:29:31.074Z,5.41
2016-03-01T04:30:31.077Z,5.36
2016-03-01T04:31:31.095Z,5.33
2016-03-01T04:32:31.098Z,5.29
2016-03-01T04:33:31.117Z,5.29
2016-03-01T04:34:31.134Z,5.32
2016-03-01T04:35:31.137Z,5.29
2016-03-01T04:36:31.171Z,5.2
2016-03-01T04:37:31.189Z,5.29
2016-03-01T04:38:31.192Z,5.26
2016-03-01T04:39:31.241Z,5.29
2016-03-01T04:40:31.213Z,5.32
2016-03-01T04:41:31.232Z,5.26
2016-03-01T04:42:31.265Z,5.26
2016-03-01T04:43:31.268Z,5.26
2016-03-01T04:44:31.286Z,5.26
2016-03-01T04:45:31.305Z,5.18
2016-03-01T04:46:31.323Z,5.29
2016-03-01T04:47:31.310Z,5.25
2016-03-01T04:48:31.343Z,5.23
2016-03-01T04:49:31.346Z,5.17
2016-03-01T04:50:31.380Z,5.23
2016-03-01T04:51:31.384Z,5.29
2016-03-01T04:52:31.386Z,5.2
2016-03-01T04:53:31.404Z,5.26
2016-03-01T04:54:31.422Z,5.26
2016-03-01T04:55:31.440Z,5.29
2016-03-01T04:56:31.459Z,5.29
2016-03-01T04:57:31.462Z,5.35
2016-03-01T04:58:31.465Z,5.26
2016-03-01T04:59:31.498Z,5.26
2016-03-01T05:00:31.486Z,5.29
2016-03-01T05:01:31.363Z,5.21
2016-03-01T05:02:31.538Z,5.21
2016-03-01T05:03:31.540Z,5.21
2016-03-01T05:04:31.559Z,5.2
2016-03-01T05:05:31.577Z,5.23
2016-03-01T05:06:31.580Z,5.21
2016-03-01T05:07:31.598Z,5.26
2016-03-01T05:08:31.679Z,5.17
2016-03-01T05:09:31.619Z,5.29
2016-03-01T05:10:31.637Z,5.2
2016-03-01T05:11:31.671Z,5.29
2016-03-01T05:12:31.658Z,5.2
2016-03-01T05:13:31.693Z,5.26
2016-03-01T05:14:31.726Z,5.18
2016-03-01T05:15:31.713Z,5.29
2016-03-01T05:16:31.591Z,5.35
2016-03-01T05:17:31.735Z,5.29
2016-03-01T05:18:31.751Z,5.36
2016-03-01T05:19:31.759Z,5.26
2016-03-01T05:20:31.781Z,5.29
2016-03-01T05:21:31.758Z,5.33
2016-03-01T05:22:31.765Z,5.2
2016-03-01T05:23:31.789Z,5.33
2016-03-01T05:24:31.771Z,5.33
2016-03-01T05:25:31.800Z,5.32
2016-03-01T05:26:31.815Z,5.35
2016-03-01T05:27:31.814Z,5.36
2016-03-01T05:28:31.827Z,5.29
2016-03-01T05:29:31.845Z,5.3
2016-03-01T05:30:31.846Z,5.3
2016-03-01T05:31:31.878Z,5.33
2016-03-01T05:32:31.864Z,5.29
2016-03-01T05:33:31.880Z,5.33
2016-03-01T05:34:31.898Z,5.29
2016-03-01T05:35:31.917Z,5.36
2016-03-01T05:36:31.919Z,5.28
2016-03-01T05:37:31.936Z,5.29
2016-03-01T05:38:31.954Z,5.29
2016-03-01T05:39:31.971Z,5.33
2016-03-01T05:40:31.991Z,5.28
2016-03-01T05:41:31.993Z,5.29
2016-03-01T05:42:31.995Z,5.26
2016-03-01T05:43:32.028Z,5.35
2016-03-01T05:44:31.875Z,5.3
2016-03-01T05:45:32.050Z,5.29
2016-03-01T05:46:32.069Z,5.3
2016-03-01T05:47:32.086Z,5.35
2016-03-01T05:48:32.167Z,5.33
2016-03-01T05:49:32.091Z,5.38
2016-03-01T05:50:32.125Z,5.36
2016-03-01T05:51:32.143Z,5.32
2016-03-01T05:52:32.146Z,5.41
2016-03-01T05:53:32.165Z,5.35
2016-03-01T05:54:32.199Z,5.33
2016-03-01T05:55:32.186Z,5.33
2016-03-01T05:56:32.204Z,5.32
2016-03-01T05:57:32.206Z,5.33
2016-03-01T05:58:32.226Z,5.33
2016-03-01T05:59:32.228Z,5.35
2016-03-01T06:00:32.246Z,5.29
2016-03-01T06:01:32.280Z,5.28
2016-03-01T06:02:32.282Z,5.28
2016-03-01T06:03:32.301Z,5.32
2016-03-01T06:04:32.320Z,5.3
2016-03-01T06:05:32.337Z,5.3
2016-03-01T06:06:32.340Z,5.29
2016-03-01T06:07:32.343Z,5.28
2016-03-01T06:08:32.377Z,5.35
2016-03-01T06:09:32.395Z,5.32
2016-03-01T06:10:32.413Z,5.36
2016-03-01T06:11:32.417Z,5.33
2016-03-01T06:12:32.434Z,5.32
2016-03-01T06:13:32.437Z,5.36
2016-03-01T06:14:32.456Z,5.32
2016-03-01T06:15:32.489Z,5.33
2016-03-01T06:16:32.492Z,5.26
2016-03-01T06:17:32.494Z,5.33
2016-03-01T06:18:32.529Z,5.32
2016-03-01T06:19:32.532Z,5.35
2016-03-01T06:20:32.535Z,5.33
2016-03-01T06:21:32.552Z,5.3
2016-03-01T06:22:31.821Z,5.33
2016-03-01T06:23:32.573Z,5.29
2016-03-01T06:24:32.608Z,5.35
2016-03-01T06:25:32.610Z,5.36
2016-03-01T06:26:32.613Z,5.32
2016-03-01T06:27:32.663Z,5.35
2016-03-01T06:28:32.649Z,5.29
2016-03-01T06:29:32.668Z,5.28
2016-03-01T06:30:32.687Z,5.35
2016-03-01T06:31:32.689Z,5.35
2016-03-01T06:32:32.707Z,5.36
2016-03-01T06:33:32.726Z,5.3
2016-03-01T06:34:32.728Z,5.3
2016-03-01T06:35:32.762Z,5.3
2016-03-01T06:36:32.764Z,5.36
2016-03-01T06:37:32.768Z,5.32
2016-03-01T06:38:32.786Z,5.32
2016-03-01T06:39:32.804Z,5.3
2016-03-01T06:40:32.838Z,5.32
2016-03-01T06:41:32.825Z,5.46
2016-03-01T06:42:32.859Z,5.41
2016-03-01T06:43:32.862Z,5.46
2016-03-01T06:44:32.880Z,5.38
2016-03-01T06:45:32.898Z,5.41
2016-03-01T06:46:32.901Z,5.44
2016-03-01T06:47:32.919Z,5.35
2016-03-01T06:48:32.953Z,5.44
2016-03-01T06:49:32.955Z,5.43
2016-03-01T06:50:32.958Z,5.38
2016-03-01T06:51:32.977Z,5.39
2016-03-01T06:52:32.995Z,5.35
2016-03-01T06:53:32.998Z,5.38
2016-03-01T06:54:33.032Z,5.39
2016-03-01T06:55:33.035Z,5.41
2016-03-01T06:56:33.053Z,5.43
2016-03-01T06:57:33.055Z,5.39
2016-03-01T06:58:33.074Z,5.46
2016-03-01T06:59:33.093Z,5.38
2016-03-01T07:00:33.095Z,5.33
2016-03-01T07:01:33.113Z,5.41
2016-03-01T07:02:33.116Z,5.43
2016-03-01T07:03:33.151Z,5.39
2016-03-01T07:04:33.168Z,5.39
2016-03-01T07:05:33.171Z,5.32
2016-03-01T07:06:33.189Z,5.47
2016-03-01T07:07:33.192Z,5.35
2016-03-01T07:08:33.210Z,5.43
2016-03-01T07:09:33.229Z,5.46
2016-03-01T07:10:33.231Z,5.41
2016-03-01T07:11:33.250Z,5.46
2016-03-01T07:12:33.267Z,5.38
2016-03-01T07:13:33.271Z,5.33
2016-03-01T07:14:33.320Z,5.48
2016-03-01T07:15:33.308Z,5.43
2016-03-01T07:16:33.388Z,5.35
2016-03-01T07:17:33.344Z,5.39
2016-03-01T07:18:33.394Z,5.44
2016-03-01T07:19:33.364Z,5.43
2016-03-01T07:20:33.383Z,5.35
2016-03-01T07:21:33.386Z,5.41
2016-03-01T07:22:33.420Z,5.33
2016-03-01T07:23:33.422Z,5.43
2016-03-01T07:24:33.441Z,5.38
2016-03-01T07:25:33.490Z,5.44
2016-03-01T07:26:33.494Z,5.47
2016-03-01T07:27:33.480Z,5.46
2016-03-01T07:28:33.499Z,5.38
2016-03-01T07:29:33.501Z,5.39
2016-03-01T07:30:33.519Z,5.43
2016-03-01T07:31:33.553Z,5.39
2016-03-01T07:32:33.540Z,5.39
2016-03-01T07:33:33.590Z,5.39
2016-03-01T07:34:33.577Z,5.43
2016-03-01T07:35:33.579Z,5.41
2016-03-01T07:36:33.614Z,5.39
2016-03-01T07:37:33.617Z,5.46
2016-03-01T07:38:33.634Z,5.46
2016-03-01T07:39:33.653Z,5.47
2016-03-01T07:40:33.656Z,5.46
2016-03-01T07:41:33.674Z,5.46
2016-03-01T07:42:33.709Z,5.46
2016-03-01T07:43:33.695Z,5.46
2016-03-01T07:44:33.713Z,5.44
2016-03-01T07:45:33.731Z,5.47
2016-03-01T07:46:33.750Z,5.5
2016-03-01T07:47:33.769Z,5.47
2016-03-01T07:48:33.772Z,5.47
2016-03-01T07:49:33.789Z,5.5
2016-03-01T07:50:33.807Z,5.5
2016-03-01T07:51:33.826Z,5.46
2016-03-01T07:52:33.828Z,5.44
2016-03-01T07:53:33.863Z,5.5
2016-03-01T07:54:33.865Z,5.43
2016-03-01T07:55:33.868Z,5.46
2016-03-01T07:56:33.902Z,5.48
2016-03-01T07:57:33.904Z,5.44
2016-03-01T07:58:33.924Z,5.47
2016-03-01T07:59:33.988Z,5.5
2016-03-01T08:00:33.974Z,5.44
2016-03-01T08:01:33.962Z,5.51
2016-03-01T08:02:33.965Z,5.53
2016-03-01T08:03:33.983Z,5.54
2016-03-01T08:04:34.017Z,5.5
2016-03-01T08:05:34.004Z,5.5
2016-03-01T08:06:34.038Z,5.62
2016-03-01T08:07:34.040Z,5.54
2016-03-01T08:08:34.075Z,5.53
2016-03-01T08:09:34.078Z,5.5
2016-03-01T08:10:34.081Z,5.56
2016-03-01T08:11:34.161Z,5.59
2016-03-01T08:12:34.336Z,5.56
2016-03-01T08:13:34.135Z,5.61
2016-03-01T08:14:34.153Z,5.62
2016-03-01T08:15:34.265Z,5.65
2016-03-01T08:16:34.174Z,5.57
2016-03-01T08:17:34.178Z,5.64
2016-03-01T08:18:34.039Z,5.68
2016-03-01T08:19:34.370Z,5.62
2016-03-01T08:20:34.389Z,5.68
2016-03-01T08:21:34.235Z,5.71
2016-03-01T08:22:34.253Z,5.71
2016-03-01T08:23:34.271Z,5.71
2016-03-01T08:24:34.289Z,5.61
2016-03-01T08:25:34.308Z,5.68
2016-03-01T08:26:34.310Z,5.65
2016-03-01T08:27:34.344Z,5.64
2016-03-01T08:28:34.379Z,5.71
2016-03-01T08:29:34.349Z,5.64
2016-03-01T08:30:34.368Z,5.69
2016-03-01T08:31:34.402Z,5.65
2016-03-01T08:32:34.405Z,5.62
2016-03-01T08:33:34.407Z,5.65
2016-03-01T08:34:34.426Z,5.66
2016-03-01T08:35:34.444Z,5.66
2016-03-01T08:36:34.463Z,5.73
2016-03-01T08:37:34.465Z,5.61
2016-03-01T08:38:34.483Z,5.66
2016-03-01T08:39:34.502Z,5.66
2016-03-01T08:40:34.520Z,5.75
2016-03-01T08:41:34.523Z,5.72
2016-03-01T08:42:34.542Z,5.72
2016-03-01T08:43:34.559Z,5.69
2016-03-01T08:44:34.562Z,5.69
2016-03-01T08:45:34.580Z,5.72
2016-03-01T08:46:34.599Z,5.72
2016-03-01T08:47:34.617Z,5.73
2016-03-01T08:48:34.635Z,5.69
2016-03-01T08:49:34.638Z,5.69
2016-03-01T08:50:34.656Z,5.73
2016-03-01T08:51:34.675Z,5.66
2016-03-01T08:52:34.678Z,5.72
2016-03-01T08:53:34.697Z,5.72
2016-03-01T08:54:34.714Z,5.65
2016-03-01T08:55:34.716Z,5.66
2016-03-01T08:56:34.736Z,5.72
2016-03-01T08:57:34.753Z,5.61
2016-03-01T08:58:34.756Z,5.69
2016-03-01T08:59:34.774Z,5.71
2016-03-01T09:00:34.808Z,5.66
2016-03-01T09:01:34.811Z,5.68
2016-03-01T09:02:34.891Z,5.72
2016-03-01T09:03:34.879Z,5.73
2016-03-01T09:04:34.866Z,5.68
2016-03-01T09:05:34.899Z,5.62
2016-03-01T09:06:34.902Z,5.65
2016-03-01T09:07:34.905Z,5.66
2016-03-01T09:08:34.907Z,5.66
2016-03-01T09:09:34.926Z,5.68
2016-03-01T09:10:34.944Z,5.64
2016-03-01T09:11:34.963Z,5.62
2016-03-01T09:12:34.965Z,5.57
2016-03-01T09:13:35.015Z,5.54
2016-03-01T09:14:34.987Z,5.53
2016-03-01T09:15:35.005Z,5.5
2016-03-01T09:16:35.023Z,5.5
2016-03-01T09:17:35.041Z,5.56
2016-03-01T09:18:35.060Z,5.56
2016-03-01T09:19:35.062Z,5.54
2016-03-01T09:20:35.081Z,5.5
2016-03-01T09:21:35.083Z,5.53
2016-03-01T09:22:35.102Z,5.48
2016-03-01T09:23:35.120Z,5.5
2016-03-01T09:24:35.154Z,5.54
2016-03-01T09:25:35.158Z,5.51
2016-03-01T09:26:35.175Z,5.56
2016-03-01T09:27:35.177Z,5.51
2016-03-01T09:28:35.196Z,5.62
2016-03-01T09:29:35.199Z,5.56
2016-03-01T09:30:35.249Z,5.66
2016-03-01T09:31:35.235Z,5.66
2016-03-01T09:32:35.254Z,5.61
2016-03-01T09:33:35.272Z,5.66
2016-03-01T09:34:35.274Z,5.65
2016-03-01T09:35:35.293Z,5.65
2016-03-01T09:36:35.327Z,5.66
2016-03-01T09:37:35.330Z,5.64
2016-03-01T09:38:35.332Z,5.64
2016-03-01T09:39:35.351Z,5.61
2016-03-01T09:40:35.385Z,5.65
2016-03-01T09:41:35.418Z,5.72
2016-03-01T09:42:35.389Z,5.61
2016-03-01T09:43:35.486Z,5.65
2016-03-01T09:44:35.426Z,5.65
2016-03-01T09:45:35.461Z,5.62
2016-03-01T09:46:35.447Z,5.65
2016-03-01T09:47:35.467Z,5.68
2016-03-01T09:48:35.469Z,5.61
2016-03-01T09:49:35.502Z,5.62
2016-03-01T09:50:35.583Z,5.69
2016-03-01T09:51:35.523Z,5.68
2016-03-01T09:52:35.541Z,5.68
2016-03-01T09:53:35.544Z,5.69
2016-03-01T09:54:35.578Z,5.68
2016-03-01T09:55:35.581Z,5.54
2016-03-01T09:56:35.583Z,5.57
2016-03-01T09:57:35.603Z,5.56
2016-03-01T09:58:35.621Z,5.61
2016-03-01T09:59:35.639Z,5.61
2016-03-01T10:00:35.657Z,5.59
2016-03-01T10:01:35.660Z,5.65
2016-03-01T10:02:35.678Z,5.66
2016-03-01T10:03:35.680Z,5.62
2016-03-01T10:04:35.699Z,5.65
2016-03-01T10:05:35.718Z,5.68
2016-03-01T10:06:35.752Z,5.62
2016-03-01T10:07:35.754Z,5.65
2016-03-01T10:08:35.773Z,5.68
2016-03-01T10:09:35.791Z,5.64
2016-03-01T10:10:35.793Z,5.62
2016-03-01T10:11:35.812Z,5.54
2016-03-01T10:12:35.830Z,5.65
2016-03-01T10:13:35.832Z,5.57
2016-03-01T10:14:35.851Z,5.61
2016-03-01T10:15:35.869Z,5.68
2016-03-01T10:16:35.887Z,5.66
2016-03-01T10:17:35.890Z,5.64
2016-03-01T10:18:35.908Z,5.64
2016-03-01T10:19:35.912Z,5.65
2016-03-01T10:20:35.930Z,5.64
2016-03-01T10:21:35.947Z,5.65
2016-03-01T10:22:35.966Z,5.62
2016-03-01T10:23:35.984Z,5.68
2016-03-01T10:24:36.003Z,5.73
2016-03-01T10:25:36.021Z,5.71
2016-03-01T10:26:36.024Z,5.69
2016-03-01T10:27:36.058Z,5.75
2016-03-01T10:28:36.060Z,5.71
2016-03-01T10:29:36.079Z,5.69
2016-03-01T10:30:36.082Z,5.73
2016-03-01T10:31:36.100Z,5.73
2016-03-01T10:32:36.118Z,5.76
2016-03-01T10:33:36.136Z,5.82
2016-03-01T10:34:36.139Z,5.76
2016-03-01T10:35:36.173Z,5.8
2016-03-01T10:36:36.160Z,5.79
2016-03-01T10:37:36.178Z,5.83
2016-03-01T10:38:36.197Z,5.82
2016-03-01T10:39:36.215Z,5.87
2016-03-01T10:40:36.234Z,5.87
2016-03-01T10:41:36.237Z,5.87
2016-03-01T10:42:36.270Z,5.87
2016-03-01T10:43:36.273Z,5.87
2016-03-01T10:44:36.291Z,5.94
2016-03-01T10:45:36.294Z,5.87
2016-03-01T10:46:36.312Z,5.91
2016-03-01T10:47:36.314Z,5.97
2016-03-01T10:48:36.334Z,5.93
2016-03-01T10:49:36.351Z,6.04
2016-03-01T10:50:36.370Z,6.04
2016-03-01T10:51:36.389Z,6.02
2016-03-01T10:52:36.406Z,6.02
2016-03-01T10:53:36.408Z,5.99
2016-03-01T10:54:36.427Z,5.99
2016-03-01T10:55:36.445Z,6.02
2016-03-01T10:56:36.464Z,6.09
2016-03-01T10:57:36.466Z,6.08
2016-03-01T10:58:36.485Z,6.05
2016-03-01T10:59:36.503Z,6.16
2016-03-01T11:00:36.537Z,6.11
2016-03-01T11:01:36.525Z,6.04
2016-03-01T11:02:36.839Z,6.11
2016-03-01T11:03:36.561Z,6.12
2016-03-01T11:04:36.563Z,6.14
2016-03-01T11:05:36.582Z,6.12
2016-03-01T11:06:36.600Z,6.12
2016-03-01T11:07:36.618Z,6.17
2016-03-01T11:08:36.621Z,6.09
2016-03-01T11:09:36.640Z,6.12
2016-03-01T11:10:36.690Z,6.16
2016-03-01T11:11:36.692Z,6.24
2016-03-01T11:12:36.695Z,6.19
2016-03-01T11:13:36.698Z,6.28
2016-03-01T11:14:36.715Z,6.26
2016-03-01T11:15:36.734Z,6.22
2016-03-01T11:16:36.752Z,6.27
2016-03-01T11:17:36.754Z,6.22
2016-03-01T11:18:36.773Z,6.26
2016-03-01T11:19:36.791Z,6.28
2016-03-01T11:20:36.810Z,6.22
2016-03-01T11:21:36.828Z,6.22
2016-03-01T11:22:36.847Z,6.24
2016-03-01T11:23:36.849Z,6.24
2016-03-01T11:24:36.867Z,6.38
2016-03-01T11:25:36.869Z,6.28
2016-03-01T11:26:36.904Z,6.36
2016-03-01T11:27:36.906Z,6.39
2016-03-01T11:28:36.925Z,6.36
2016-03-01T11:29:36.943Z,6.41
2016-03-01T11:30:36.961Z,6.48
2016-03-01T11:31:36.980Z,6.44
2016-03-01T11:32:36.982Z,6.42
2016-03-01T11:33:37.002Z,6.45
2016-03-01T11:34:37.019Z,6.46
2016-03-01T11:35:37.052Z,6.46
2016-03-01T11:36:37.040Z,6.46
2016-03-01T11:37:37.058Z,6.57
2016-03-01T11:38:37.077Z,6.51
2016-03-01T11:39:37.095Z,6.57
2016-03-01T11:40:37.129Z,6.48
2016-03-01T11:41:37.116Z,6.42
2016-03-01T11:42:37.134Z,6.49
2016-03-01T11:43:37.154Z,6.49
2016-03-01T11:44:37.171Z,6.52
2016-03-01T11:45:37.190Z,6.44
2016-03-01T11:46:37.192Z,6.56
2016-03-01T11:47:37.195Z,6.48
2016-03-01T11:48:37.229Z,6.52
2016-03-01T11:49:37.231Z,6.54
2016-03-01T11:50:37.250Z,6.48
2016-03-01T11:51:37.331Z,6.59
2016-03-01T11:52:37.286Z,6.57
2016-03-01T11:53:37.290Z,6.54
2016-03-01T11:54:37.151Z,6.54
2016-03-01T11:55:37.326Z,6.56
2016-03-01T11:56:37.344Z,6.56
2016-03-01T11:57:37.362Z,6.62
2016-03-01T11:58:37.380Z,6.62
2016-03-01T11:59:37.383Z,6.64
2016-03-01T12:00:37.401Z,6.63
2016-03-01T12:01:37.420Z,6.67
2016-03-01T12:02:37.438Z,6.67
2016-03-01T12:03:37.472Z,6.74
2016-03-01T12:04:37.460Z,6.79
2016-03-01T12:05:37.477Z,6.77
2016-03-01T12:06:37.497Z,6.88
2016-03-01T12:07:37.515Z,6.89
2016-03-01T12:08:37.517Z,6.87
2016-03-01T12:09:37.536Z,6.88
2016-03-01T12:10:37.554Z,7.03
2016-03-01T12:11:37.573Z,7
2016-03-01T12:12:37.591Z,7.1
2016-03-01T12:13:37.625Z,7.15
2016-03-01T12:14:37.613Z,7.17
2016-03-01T12:15:37.615Z,7.15
2016-03-01T12:16:37.649Z,7.17
2016-03-01T12:17:37.699Z,7.15
2016-03-01T12:18:37.669Z,7.17
2016-03-01T12:19:37.688Z,7.18
2016-03-01T12:20:37.721Z,7.21
2016-03-01T12:21:37.725Z,7.31
2016-03-01T12:22:37.759Z,7.28
2016-03-01T12:23:37.746Z,7.28
2016-03-01T12:24:37.796Z,7.33
2016-03-01T12:25:37.782Z,7.36
2016-03-01T12:26:37.831Z,7.36
2016-03-01T12:27:37.865Z,7.36
2016-03-01T12:28:37.821Z,7.39
2016-03-01T12:29:37.870Z,7.43
2016-03-01T12:30:37.858Z,7.47
2016-03-01T12:31:37.876Z,7.48
2016-03-01T12:32:38.004Z,7.53
2016-03-01T12:33:37.914Z,7.53
2016-03-01T12:34:37.931Z,7.6
2016-03-01T12:35:37.934Z,7.63
2016-03-01T12:36:37.952Z,7.57
2016-03-01T12:37:37.971Z,7.66
2016-03-01T12:38:37.989Z,7.57
2016-03-01T12:39:38.007Z,7.67
2016-03-01T12:40:38.073Z,7.72
2016-03-01T12:41:38.028Z,7.6
2016-03-01T12:42:38.047Z,7.69
2016-03-01T12:43:38.066Z,7.72
2016-03-01T12:44:38.084Z,7.69
2016-03-01T12:45:38.102Z,7.7
2016-03-01T12:46:38.120Z,7.72
2016-03-01T12:47:38.170Z,7.76
2016-03-01T12:48:38.141Z,7.76
2016-03-01T12:49:38.160Z,7.83
2016-03-01T12:50:38.177Z,7.76
2016-03-01T12:51:38.196Z,7.79
2016-03-01T12:52:38.215Z,7.79
2016-03-01T12:53:38.263Z,7.8
2016-03-01T12:54:38.235Z,7.85
2016-03-01T12:55:38.238Z,7.9
2016-03-01T12:56:38.272Z,7.93
2016-03-01T12:57:38.290Z,7.91
2016-03-01T12:58:38.308Z,7.93
2016-03-01T12:59:38.312Z,7.95
2016-03-01T13:00:38.517Z,8
2016-03-01T13:01:38.364Z,7.91
2016-03-01T13:02:38.367Z,8.01
2016-03-01T13:03:38.384Z,8.01
2016-03-01T13:04:38.403Z,7.97
2016-03-01T13:05:38.406Z,8.01
2016-03-01T13:06:38.267Z,8.03
2016-03-01T13:07:38.911Z,7.98
2016-03-01T13:08:38.461Z,7.97
2016-03-01T13:09:38.479Z,8.01
2016-03-01T13:10:38.481Z,8
2016-03-01T13:11:38.516Z,7.95
2016-03-01T13:12:38.533Z,8
2016-03-01T13:13:38.537Z,8
2016-03-01T13:14:38.556Z,7.98
2016-03-01T13:15:38.573Z,8.03
2016-03-01T13:16:38.592Z,8.03
2016-03-01T13:17:38.610Z,7.95
2016-03-01T13:18:38.644Z,8.05
2016-03-01T13:19:38.630Z,8
2016-03-01T13:20:38.650Z,7.97
2016-03-01T13:21:38.668Z,8.03